createdAt,value
2022-11-29T00:01:15.506Z,16.63
2022-11-29T00:04:17.884Z,14.95
2022-11-29T00:07:20.141Z,13.65
2022-11-29T00:10:22.652Z,12.63
2022-11-29T00:13:24.855Z,12.55
2022-11-29T00:16:27.104Z,12.07
2022-11-29T00:19:29.626Z,12.00
2022-11-29T00:22:31.795Z,13.20
2022-11-29T00:25:34.047Z,12.30
2022-11-29T00:28:36.925Z,12.32
2022-11-29T00:31:39.605Z,12.32
2022-11-29T00:34:41.906Z,11.98
2022-11-29T00:37:44.431Z,11.43
2022-11-29T00:40:51.813Z,10.67
2022-11-29T00:43:54.313Z,10.70
2022-11-29T00:46:57.511Z,11.10
2022-11-29T00:49:59.611Z,11.50
2022-11-29T00:53:01.752Z,10.85
2022-11-29T00:56:05.083Z,9.83
2022-11-29T00:59:07.255Z,10.02
2022-11-29T01:02:09.443Z,10.15
2022-11-29T01:05:11.594Z,10.43
2022-11-29T01:08:14.902Z,11.27
2022-11-29T01:11:26.186Z,10.23
2022-11-29T01:14:28.331Z,10.90
2022-11-29T01:17:30.615Z,11.95
2022-11-29T01:20:32.903Z,12.57
2022-11-29T01:23:36.904Z,12.40
2022-11-29T01:26:39.062Z,11.23
2022-11-29T01:29:41.203Z,12.05
2022-11-29T01:32:43.332Z,10.90
2022-11-29T01:35:49.976Z,11.85
2022-11-29T01:38:52.436Z,12.43
2022-11-29T01:41:55.093Z,12.00
2022-11-29T01:45:05.005Z,12.52
2022-11-29T01:48:07.228Z,12.48
2022-11-29T01:51:09.357Z,11.02
2022-11-29T01:54:11.874Z,11.27
2022-11-29T01:57:14.472Z,11.70
2022-11-29T02:00:18.539Z,11.10
2022-11-29T02:03:21.834Z,12.68
2022-11-29T02:06:24.089Z,12.57
2022-11-29T02:09:26.444Z,14.30
2022-11-29T02:12:35.172Z,11.23
2022-11-29T02:16:11.345Z,11.95
2022-11-29T02:19:28.496Z,12.73
2022-11-29T02:22:37.594Z,11.63
2022-11-29T02:25:48.701Z,11.27
2022-11-29T02:29:27.937Z,11.77
2022-11-29T02:32:39.034Z,11.57
2022-11-29T02:35:59.871Z,11.85
2022-11-29T02:39:31.017Z,12.40
2022-11-29T02:42:57.042Z,12.25
2022-11-29T02:46:27.032Z,11.60
2022-11-29T02:49:44.269Z,11.75
2022-11-29T02:53:18.746Z,11.75
2022-11-29T02:56:25.083Z,11.27
2022-11-29T02:59:39.701Z,13.40
2022-11-29T03:03:05.367Z,12.27
2022-11-29T03:06:32.337Z,12.95
2022-11-29T03:09:45.450Z,14.40
2022-11-29T03:12:50.117Z,13.07
2022-11-29T03:16:07.109Z,13.15
2022-11-29T03:19:21.214Z,12.13
2022-11-29T03:22:39.761Z,13.18
2022-11-29T03:26:01.817Z,13.02
2022-11-29T03:29:20.058Z,12.02
2022-11-29T03:32:34.917Z,14.45
2022-11-29T03:35:42.598Z,13.13
2022-11-29T03:38:47.409Z,12.70
2022-11-29T03:41:59.092Z,13.18
2022-11-29T03:45:25.391Z,13.57
2022-11-29T03:48:27.556Z,12.80
2022-11-29T03:51:49.862Z,13.07
2022-11-29T03:55:07.108Z,13.18
2022-11-29T03:58:24.120Z,12.00
2022-11-29T04:01:50.009Z,13.25
2022-11-29T04:05:11.129Z,13.35
2022-11-29T04:08:27.172Z,13.63
2022-11-29T04:11:58.993Z,12.38
2022-11-29T04:15:18.995Z,14.55
2022-11-29T04:18:53.056Z,13.95
2022-11-29T04:22:19.548Z,13.73
2022-11-29T04:25:53.502Z,13.20
2022-11-29T04:29:07.812Z,13.95
2022-11-29T04:32:40.904Z,13.07
2022-11-29T04:35:51.976Z,14.65
2022-11-29T04:39:07.974Z,13.98
2022-11-29T04:42:18.711Z,12.20
2022-11-29T04:45:39.447Z,11.75
2022-11-29T04:49:03.199Z,12.63
2022-11-29T04:52:23.837Z,12.75
2022-11-29T04:55:47.150Z,13.13
2022-11-29T04:59:03.460Z,12.43
2022-11-29T05:02:16.883Z,12.32
2022-11-29T05:05:22.007Z,12.10
2022-11-29T05:08:33.449Z,12.70
2022-11-29T05:12:01.436Z,12.82
2022-11-29T05:15:41.112Z,13.00
2022-11-29T05:19:11.113Z,13.68
2022-11-29T05:22:31.749Z,12.70
2022-11-29T05:25:51.978Z,13.57
2022-11-29T05:29:14.284Z,13.38
2022-11-29T05:32:44.252Z,12.53
2022-11-29T05:35:49.121Z,12.07
2022-11-29T05:39:14.319Z,13.82
2022-11-29T05:42:28.640Z,13.30
2022-11-29T05:45:49.363Z,12.25
2022-11-29T05:48:58.270Z,11.77
2022-11-29T05:52:22.054Z,12.77
2022-11-29T05:55:35.138Z,14.27
2022-11-29T05:58:58.651Z,12.93
2022-11-29T06:02:11.706Z,12.95
2022-11-29T06:05:19.959Z,13.80
2022-11-29T06:08:34.752Z,12.90
2022-11-29T06:12:02.567Z,12.68
2022-11-29T06:15:28.024Z,12.18
2022-11-29T06:18:48.435Z,12.77
2022-11-29T06:22:21.480Z,13.03
2022-11-29T06:25:31.624Z,13.30
2022-11-29T06:28:52.334Z,13.23
2022-11-29T06:32:08.392Z,14.25
2022-11-29T06:35:49.881Z,13.80
2022-11-29T06:38:52.270Z,13.90
2022-11-29T06:41:54.554Z,13.93
2022-11-29T06:44:56.937Z,13.68
2022-11-29T06:48:02.711Z,14.52
2022-11-29T06:51:39.045Z,13.55
2022-11-29T06:55:01.448Z,12.03
2022-11-29T06:58:09.345Z,12.88
2022-11-29T07:01:14.194Z,12.80
2022-11-29T07:05:02.487Z,15.30
2022-11-29T07:08:27.278Z,13.18
2022-11-29T07:11:31.001Z,14.33
2022-11-29T07:14:35.624Z,13.07
2022-11-29T07:18:15.892Z,13.43
2022-11-29T07:21:40.682Z,12.68
2022-11-29T07:24:55.250Z,12.43
2022-11-29T07:28:18.922Z,12.90
2022-11-29T07:31:33.655Z,13.43
2022-11-29T07:35:16.016Z,11.82
2022-11-29T07:38:34.461Z,10.98
2022-11-29T07:41:47.491Z,12.57
2022-11-29T07:45:26.929Z,11.13
2022-11-29T07:48:30.435Z,12.15
2022-11-29T07:51:33.737Z,13.60
2022-11-29T07:54:37.441Z,11.45
2022-11-29T07:57:40.330Z,12.93
2022-11-29T08:00:44.097Z,13.43
2022-11-29T08:03:47.741Z,13.88
2022-11-29T08:06:50.639Z,14.23
2022-11-29T08:09:54.133Z,12.98
2022-11-29T08:12:57.534Z,15.15
2022-11-29T08:16:00.662Z,13.23
2022-11-29T08:19:05.255Z,14.23
2022-11-29T08:22:08.042Z,15.35
2022-11-29T08:25:11.650Z,14.73
2022-11-29T08:28:14.948Z,13.55
2022-11-29T08:31:17.991Z,13.87
2022-11-29T08:34:22.052Z,12.52
2022-11-29T08:37:25.051Z,13.48
2022-11-29T08:40:28.347Z,11.77
2022-11-29T08:43:31.851Z,11.23
2022-11-29T08:46:53.472Z,12.60
2022-11-29T08:50:02.417Z,13.70
2022-11-29T08:53:23.113Z,12.70
2022-11-29T08:57:16.537Z,12.77
2022-11-29T08:59:47.382Z,10.85
2022-11-29T09:02:49.577Z,12.97
2022-11-29T09:05:52.444Z,12.93
2022-11-29T09:08:56.539Z,14.38
2022-11-29T09:11:58.722Z,13.80
2022-11-29T09:15:00.994Z,13.23
2022-11-29T09:18:05.229Z,12.83
2022-11-29T09:21:09.222Z,13.73
2022-11-29T09:24:11.933Z,14.45
2022-11-29T09:27:14.449Z,14.85
2022-11-29T09:30:22.117Z,15.15
2022-11-29T09:33:25.718Z,13.47
2022-11-29T09:36:29.635Z,14.30
2022-11-29T09:39:31.857Z,15.35
2022-11-29T09:42:56.344Z,13.55
2022-11-29T09:46:35.472Z,13.52
2022-11-29T09:49:42.044Z,13.23
2022-11-29T09:52:56.351Z,12.57
2022-11-29T09:55:58.448Z,12.93
2022-11-29T09:59:08.872Z,13.75
2022-11-29T10:02:25.333Z,13.88
2022-11-29T10:05:57.543Z,13.50
2022-11-29T10:09:14.662Z,12.90
2022-11-29T10:12:30.803Z,14.60
2022-11-29T10:15:39.365Z,12.68
2022-11-29T10:18:49.998Z,12.88
2022-11-29T10:22:02.843Z,12.37
2022-11-29T10:25:07.289Z,12.75
2022-11-29T10:28:13.951Z,12.32
2022-11-29T10:31:28.070Z,12.52
2022-11-29T10:34:31.035Z,12.50
2022-11-29T10:37:34.841Z,13.23
2022-11-29T10:40:38.062Z,11.95
2022-11-29T10:43:40.302Z,11.30
2022-11-29T10:46:42.623Z,11.25
2022-11-29T10:49:44.722Z,12.25
2022-11-29T10:52:46.881Z,12.60
2022-11-29T10:55:53.693Z,12.88
2022-11-29T10:59:05.186Z,13.50
2022-11-29T11:02:20.519Z,11.68
2022-11-29T11:05:26.108Z,11.30
2022-11-29T11:08:28.760Z,12.60
2022-11-29T11:11:32.529Z,12.70
2022-11-29T11:14:37.675Z,12.38
2022-11-29T11:17:42.268Z,12.82
2022-11-29T11:20:56.906Z,11.82
2022-11-29T11:24:03.003Z,10.73
2022-11-29T11:27:05.163Z,11.32
2022-11-29T11:30:33.476Z,12.13
2022-11-29T11:33:41.587Z,11.55
2022-11-29T11:36:43.710Z,11.50
2022-11-29T11:39:48.636Z,11.43
2022-11-29T11:42:50.861Z,11.07
2022-11-29T11:45:53.824Z,11.60
2022-11-29T11:48:56.016Z,11.02
2022-11-29T11:51:59.785Z,11.05
2022-11-29T11:55:05.142Z,12.47
2022-11-29T11:58:16.918Z,11.20
2022-11-29T12:01:28.996Z,12.38
2022-11-29T12:04:34.401Z,12.10
2022-11-29T12:08:07.309Z,11.15
2022-11-29T12:11:10.534Z,11.90
2022-11-29T12:14:57.235Z,11.23
2022-11-29T12:18:06.719Z,11.10
2022-11-29T12:21:14.750Z,11.27
2022-11-29T12:24:31.143Z,11.63
2022-11-29T12:27:33.311Z,10.93
2022-11-29T12:30:35.797Z,11.32
2022-11-29T12:33:53.046Z,11.68
2022-11-29T12:37:15.914Z,10.90
2022-11-29T12:40:28.435Z,10.23
2022-11-29T12:44:07.902Z,10.67
2022-11-29T12:50:52.941Z,10.57
2022-11-29T12:54:19.872Z,10.32
2022-11-29T12:57:49.055Z,11.93
2022-11-29T13:01:34.885Z,11.00
2022-11-29T13:05:15.502Z,11.10
2022-11-29T13:08:44.212Z,12.10
2022-11-29T13:12:19.182Z,11.63
2022-11-29T13:15:50.015Z,11.07
2022-11-29T13:19:17.399Z,11.17
2022-11-29T13:22:31.121Z,11.70
2022-11-29T13:25:41.982Z,11.43
2022-11-29T13:28:46.412Z,12.85
2022-11-29T13:31:49.040Z,12.32
2022-11-29T13:34:52.263Z,12.70
2022-11-29T13:38:08.523Z,12.55
2022-11-29T13:41:34.431Z,13.93
2022-11-29T13:44:51.763Z,13.45
2022-11-29T13:48:00.075Z,12.88
2022-11-29T13:51:42.743Z,13.50
2022-11-29T13:54:45.365Z,13.10
2022-11-29T14:01:18.115Z,13.35
2022-11-29T14:04:38.095Z,14.98
2022-11-29T14:08:18.412Z,13.77
2022-11-29T14:11:26.631Z,15.77
2022-11-29T14:14:49.655Z,16.50
2022-11-29T14:17:51.786Z,15.60
2022-11-29T14:20:57.825Z,15.52
2022-11-29T14:24:31.814Z,24.67
2022-11-29T14:27:33.902Z,16.27
2022-11-29T14:30:45.072Z,31.63
2022-11-29T14:33:47.233Z,27.27
2022-11-29T14:37:16.153Z,17.38
2022-11-29T14:40:21.120Z,17.67
2022-11-29T14:43:38.425Z,16.27
2022-11-29T14:46:40.724Z,15.10
2022-11-29T14:49:44.625Z,15.32
2022-11-29T14:52:51.701Z,15.68
2022-11-29T14:56:28.927Z,15.20
2022-11-29T14:59:51.829Z,15.63
2022-11-29T15:03:13.179Z,16.23
2022-11-29T15:06:23.358Z,14.77
2022-11-29T15:09:27.299Z,15.52
2022-11-29T15:12:36.815Z,15.70
2022-11-29T15:16:13.297Z,17.42
2022-11-29T15:19:46.800Z,17.35
2022-11-29T15:22:52.549Z,15.20
2022-11-29T15:26:00.229Z,15.57
2022-11-29T15:29:17.821Z,15.87
2022-11-29T15:32:20.294Z,16.30
2022-11-29T15:35:22.728Z,18.88
2022-11-29T15:38:25.146Z,18.17
2022-11-29T15:41:29.454Z,18.70
2022-11-29T15:44:32.814Z,16.20
2022-11-29T15:47:35.649Z,20.02
2022-11-29T15:50:39.982Z,19.88
2022-11-29T15:54:11.792Z,20.35
2022-11-29T15:57:29.094Z,21.02
2022-11-29T16:00:33.043Z,21.83
2022-11-29T16:03:39.037Z,23.38
2022-11-29T16:06:42.505Z,23.77
2022-11-29T16:09:48.521Z,24.83
2022-11-29T16:12:59.638Z,38.58
2022-11-29T16:16:15.938Z,32.93
2022-11-29T16:19:23.985Z,31.30
2022-11-29T16:22:26.409Z,42.30
2022-11-29T16:25:32.166Z,38.00
2022-11-29T16:28:42.699Z,24.10
2022-11-29T16:31:44.971Z,22.73
2022-11-29T16:34:52.484Z,22.15
2022-11-29T16:37:54.992Z,20.63
2022-11-29T16:41:02.468Z,22.27
2022-11-29T16:44:06.288Z,28.60
2022-11-29T16:47:12.388Z,29.20
2022-11-29T16:50:20.800Z,32.20
2022-11-29T16:53:42.647Z,31.88
2022-11-29T16:56:45.104Z,31.50
2022-11-29T16:59:47.779Z,27.15
2022-11-29T17:02:50.736Z,26.43
2022-11-29T17:05:54.122Z,27.33
2022-11-29T17:08:58.444Z,27.67
2022-11-29T17:12:02.178Z,25.77
2022-11-29T17:15:04.670Z,26.13
2022-11-29T17:18:06.885Z,24.93
2022-11-29T17:21:21.210Z,24.33
2022-11-29T17:24:24.299Z,28.90
2022-11-29T17:27:26.999Z,28.20
2022-11-29T17:30:30.076Z,26.60
2022-11-29T17:33:32.277Z,27.80
2022-11-29T17:36:34.533Z,27.58
2022-11-29T17:39:40.191Z,29.70
2022-11-29T17:42:42.771Z,27.13
2022-11-29T17:45:45.019Z,35.13
2022-11-29T17:48:48.063Z,30.80
2022-11-29T17:51:52.210Z,34.30
2022-11-29T17:54:55.377Z,38.92
2022-11-29T17:57:58.152Z,38.38
2022-11-29T18:01:08.542Z,33.42
2022-11-29T18:04:11.037Z,35.27
2022-11-29T18:07:15.046Z,34.75
2022-11-29T18:10:17.714Z,33.50
2022-11-29T18:13:20.114Z,32.92
2022-11-29T18:16:29.674Z,34.88
2022-11-29T18:19:32.765Z,40.47
2022-11-29T18:22:35.485Z,41.42
2022-11-29T18:25:39.623Z,41.92
2022-11-29T18:28:47.040Z,39.50
2022-11-29T18:31:49.647Z,37.78
2022-11-29T18:34:52.296Z,36.70
2022-11-29T18:38:14.517Z,39.08
2022-11-29T18:41:20.414Z,41.30
2022-11-29T18:44:30.200Z,47.35
2022-11-29T18:47:33.119Z,50.88
2022-11-29T18:50:35.964Z,45.30
2022-11-29T18:53:39.729Z,50.00
2022-11-29T18:56:43.510Z,59.65
2022-11-29T18:59:46.075Z,61.75
2022-11-29T19:02:49.095Z,58.25
2022-11-29T19:05:54.913Z,54.67
2022-11-29T19:08:58.899Z,54.33
2022-11-29T19:12:04.212Z,62.28
2022-11-29T19:15:07.497Z,60.70
2022-11-29T19:18:10.304Z,59.55
2022-11-29T19:21:13.826Z,64.63
2022-11-29T19:24:18.654Z,70.10
2022-11-29T19:27:26.554Z,77.10
2022-11-29T19:30:29.299Z,78.38
2022-11-29T19:33:33.487Z,74.53
2022-11-29T19:36:43.412Z,78.17
2022-11-29T19:39:47.030Z,74.68
2022-11-29T19:42:50.649Z,78.30
2022-11-29T19:45:53.747Z,76.10
2022-11-29T19:48:57.505Z,79.55
2022-11-29T19:52:00.272Z,85.03
2022-11-29T19:55:05.121Z,80.88
2022-11-29T19:58:07.435Z,84.40
2022-11-29T20:01:14.632Z,80.97
2022-11-29T20:04:18.021Z,83.15
2022-11-29T20:07:20.823Z,82.60
2022-11-29T20:10:24.022Z,73.82
2022-11-29T20:13:26.834Z,69.03
2022-11-29T20:16:31.918Z,63.28
2022-11-29T20:19:34.895Z,56.83
2022-11-29T20:22:38.314Z,48.80
2022-11-29T20:25:41.275Z,48.90
2022-11-29T20:28:44.722Z,46.08
2022-11-29T20:31:51.073Z,44.88
2022-11-29T20:34:54.882Z,52.47
2022-11-29T20:38:01.247Z,52.90
2022-11-29T20:41:20.310Z,45.10
2022-11-29T20:44:38.789Z,51.20
2022-11-29T20:47:46.766Z,43.17
2022-11-29T20:51:01.460Z,44.38
2022-11-29T20:54:04.169Z,50.23
2022-11-29T20:57:06.772Z,49.38
2022-11-29T21:00:11.875Z,41.17
2022-11-29T21:03:15.780Z,41.22
2022-11-29T21:06:18.389Z,44.63
2022-11-29T21:09:21.269Z,42.03
2022-11-29T21:12:24.073Z,43.00
2022-11-29T21:15:26.820Z,42.55
2022-11-29T21:18:30.891Z,43.28
2022-11-29T21:21:49.424Z,39.45
2022-11-29T21:25:10.902Z,31.80
2022-11-29T21:28:14.975Z,36.50
2022-11-29T21:31:18.026Z,36.78
2022-11-29T21:34:20.979Z,40.30
2022-11-29T21:37:26.999Z,41.22
2022-11-29T21:40:29.188Z,40.20
2022-11-29T21:44:04.229Z,36.30
2022-11-29T21:46:54.375Z,42.03
2022-11-29T21:49:56.532Z,37.90
2022-11-29T21:52:58.739Z,35.70
2022-11-29T21:56:02.654Z,35.87
2022-11-29T21:59:05.901Z,37.15
2022-11-29T22:02:08.171Z,31.88
2022-11-29T22:05:10.853Z,36.92
2022-11-29T22:08:13.830Z,36.33
2022-11-29T22:11:30.908Z,36.67
2022-11-29T22:14:34.705Z,38.50
2022-11-29T22:17:36.833Z,34.85
2022-11-29T22:20:39.703Z,36.03
2022-11-29T22:23:41.836Z,40.08
2022-11-29T22:26:44.190Z,28.20
2022-11-29T22:29:47.012Z,26.48
2022-11-29T22:32:49.252Z,37.00
2022-11-29T22:35:51.382Z,33.80
2022-11-29T22:38:53.718Z,36.42
2022-11-29T22:41:56.010Z,32.87
2022-11-29T22:44:58.180Z,28.08
2022-11-29T22:48:00.481Z,31.20
2022-11-29T22:51:07.429Z,34.22
2022-11-29T22:54:11.434Z,31.83
2022-11-29T22:57:13.609Z,31.13
2022-11-29T23:00:16.005Z,30.00
2022-11-29T23:03:18.122Z,30.80
2022-11-29T23:06:28.694Z,30.35
2022-11-29T23:09:30.862Z,32.47
2022-11-29T23:12:33.007Z,30.20
2022-11-29T23:15:35.126Z,29.77
2022-11-29T23:18:38.535Z,30.63
2022-11-29T23:21:41.354Z,30.13
2022-11-29T23:24:43.551Z,29.30
2022-11-29T23:27:45.825Z,29.57
2022-11-29T23:30:48.038Z,32.08
2022-11-29T23:33:50.266Z,30.00
2022-11-29T23:36:53.281Z,29.42
2022-11-29T23:39:55.605Z,29.83
2022-11-29T23:42:57.789Z,29.63
2022-11-29T23:46:06.476Z,27.80
2022-11-29T23:49:08.615Z,27.45
2022-11-29T23:52:11.369Z,27.30
2022-11-29T23:55:14.558Z,25.50
2022-11-29T23:58:16.762Z,26.90
